Time;durP1;ratioP1;P1;durP2;ratioP2;P2;SDS_P1;SDS_P2;PMS_P1;PMS_P2;Temp;Humidity;BMP_temperature;BMP_pressure;BME280_temperature;BME280_humidity;BME280_pressure;Samples;Min_cycle;Max_cycle;Signal;HPM_P1;HPM_P2
2022/11/30 00:00:08;;;;;;;69.85;25.42;;;;;;;1.78;100.00;96007.34;1039192;28;20026;-70
2022/11/30 00:00:39;;;;;;;58.08;24.83;;;;;;;1.72;100.00;96008.16;1038680;28;20041;-70
2022/11/30 00:01:13;;;;;;;60.85;25.30;;;;;;;1.73;100.00;96009.72;1038843;28;20647;-70
2022/11/30 00:01:43;;;;;;;59.78;24.85;;;;;;;1.63;100.00;95997.19;1036688;28;20025;-71
2022/11/30 00:02:14;;;;;;;64.65;26.40;;;;;;;1.74;100.00;96013.91;1032641;28;20291;-70
2022/11/30 00:02:45;;;;;;;67.20;26.23;;;;;;;1.75;100.00;96008.53;1030224;28;20033;-71
2022/11/30 00:03:15;;;;;;;66.38;26.83;;;;;;;1.75;100.00;96018.09;1022373;28;20270;-70
2022/11/30 00:03:46;;;;;;;57.10;24.95;;;;;;;1.69;100.00;96001.56;1023817;28;20026;-70
2022/11/30 00:04:17;;;;;;;63.80;25.95;;;;;;;1.71;100.00;96012.53;1030344;28;20444;-70
2022/11/30 00:04:47;;;;;;;64.43;25.50;;;;;;;1.72;100.00;96014.13;1030352;28;20120;-70
2022/11/30 00:05:19;;;;;;;60.67;23.17;;;;;;;1.72;100.00;96019.28;1030237;28;20086;-69
2022/11/30 00:05:49;;;;;;;53.97;24.23;;;;;;;1.71;100.00;96011.72;1031235;28;20293;-70
2022/11/30 00:06:23;;;;;;;63.08;24.77;;;;;;;1.69;100.00;96014.50;1034097;28;20290;-70
2022/11/30 00:06:56;;;;;;;62.70;24.65;;;;;;;1.72;100.00;96015.91;1026186;28;20576;-70
2022/11/30 00:07:26;;;;;;;61.05;24.02;;;;;;;1.73;100.00;96015.69;1028044;28;21115;-69
2022/11/30 00:07:59;;;;;;;61.53;25.05;;;;;;;1.71;100.00;96007.34;1031639;28;20318;-70
2022/11/30 00:08:30;;;;;;;65.93;24.88;;;;;;;1.73;100.00;96017.50;1030589;28;20042;-70
2022/11/30 00:09:00;;;;;;;70.32;26.38;;;;;;;1.73;100.00;96017.50;1032721;28;20276;-69
2022/11/30 00:09:31;;;;;;;64.45;24.25;;;;;;;1.71;100.00;96019.47;1034778;28;20022;-70
2022/11/30 00:10:02;;;;;;;64.18;25.10;;;;;;;1.68;100.00;96014.69;1030644;28;20733;-70
2022/11/30 00:10:32;;;;;;;62.22;24.63;;;;;;;1.70;100.00;96020.47;1034443;28;20037;-70
2022/11/30 00:11:16;;;;;;;58.33;25.00;;;;;;;1.68;100.00;96018.09;1034840;28;20030;-71
2022/11/30 00:11:47;;;;;;;53.97;23.77;;;;;;;1.67;100.00;96015.69;1032210;28;20101;-70
2022/11/30 00:12:17;;;;;;;57.47;23.40;;;;;;;1.65;100.00;96016.69;1037715;28;20260;-70
2022/11/30 00:12:48;;;;;;;60.00;23.42;;;;;;;1.69;100.00;96026.66;1042430;28;20036;-70
2022/11/30 00:13:18;;;;;;;61.53;23.58;;;;;;;1.67;100.00;96028.63;1042523;28;20025;-69
2022/11/30 00:13:49;;;;;;;63.95;23.75;;;;;;;1.67;100.00;96026.03;1043194;28;20537;-70
2022/11/30 00:14:19;;;;;;;71.43;26.00;;;;;;;1.65;100.00;96023.66;1038444;28;20040;-70
2022/11/30 00:14:50;;;;;;;66.95;26.58;;;;;;;1.68;100.00;96019.88;1034319;28;20599;-70
2022/11/30 00:15:20;;;;;;;74.22;25.63;;;;;;;1.69;100.00;96021.47;1034652;28;20033;-70
2022/11/30 00:15:51;;;;;;;69.93;25.83;;;;;;;1.68;100.00;96018.09;1027719;28;20033;-70
2022/11/30 00:16:21;;;;;;;68.70;24.92;;;;;;;1.68;100.00;96019.88;1034442;28;20042;-70
2022/11/30 00:16:52;;;;;;;68.68;25.83;;;;;;;1.66;100.00;96020.09;1034820;28;20061;-69
2022/11/30 00:17:22;;;;;;;72.40;26.95;;;;;;;1.57;100.00;96014.31;1034211;28;20096;-70
2022/11/30 00:17:56;;;;;;;66.03;26.08;;;;;;;1.61;100.00;96028.44;1038619;28;20029;-70
2022/11/30 00:18:27;;;;;;;68.45;24.67;;;;;;;1.63;100.00;96026.44;1034916;28;20018;-71
2022/11/30 00:18:57;;;;;;;69.80;25.05;;;;;;;1.59;100.00;96019.28;1038358;28;20943;-70
2022/11/30 00:19:27;;;;;;;66.22;24.02;;;;;;;1.65;100.00;96027.03;1034489;28;20022;-70
2022/11/30 00:19:58;;;;;;;58.60;24.77;;;;;;;1.61;100.00;96022.44;1030457;28;20041;-70
2022/11/30 00:20:29;;;;;;;61.17;23.73;;;;;;;1.62;100.00;96022.28;1034353;28;20089;-70
2022/11/30 00:21:03;;;;;;;68.28;24.17;;;;;;;1.55;100.00;96008.56;1038528;28;20030;-70
2022/11/30 00:21:33;;;;;;;53.60;22.85;;;;;;;1.59;100.00;96020.09;1034184;28;20018;-70
2022/11/30 00:22:04;;;;;;;62.15;22.75;;;;;;;1.60;100.00;96020.88;1030564;28;20265;-70
2022/11/30 00:22:34;;;;;;;58.25;23.33;;;;;;;1.54;100.00;96014.72;1029451;28;20089;-71
2022/11/30 00:23:08;;;;;;;54.25;23.10;;;;;;;1.56;100.00;96020.47;1030588;28;20546;-71
2022/11/30 00:23:40;;;;;;;61.05;23.17;;;;;;;1.54;100.00;96019.06;1034899;28;20062;-70
2022/11/30 00:24:10;;;;;;;64.60;22.52;;;;;;;1.60;100.00;96032.00;1030174;28;20832;-70
2022/11/30 00:24:41;;;;;;;62.72;24.00;;;;;;;1.54;100.00;96030.25;1030506;28;20292;-71
2022/11/30 00:25:11;;;;;;;58.72;21.95;;;;;;;1.50;100.00;96030.81;1030978;28;20611;-70
2022/11/30 00:25:42;;;;;;;65.07;23.80;;;;;;;1.46;100.00;96024.44;1030438;28;20054;-70
2022/11/30 00:26:14;;;;;;;63.85;23.67;;;;;;;1.38;100.00;96012.53;1042653;28;20383;-70
2022/11/30 00:26:45;;;;;;;61.63;24.48;;;;;;;1.48;100.00;96028.44;1030089;28;20480;-70
2022/11/30 00:27:15;;;;;;;65.85;23.58;;;;;;;1.44;100.00;96029.81;1030609;28;20270;-71
2022/11/30 00:27:46;;;;;;;71.47;26.70;;;;;;;1.35;100.00;96012.91;1034101;28;20492;-71
2022/11/30 00:28:16;;;;;;;65.63;24.58;;;;;;;1.44;100.00;96027.22;1030483;28;20022;-71
2022/11/30 00:28:47;;;;;;;67.88;24.92;;;;;;;1.45;100.00;96028.84;1034533;28;20033;-70
2022/11/30 00:29:18;;;;;;;67.60;26.00;;;;;;;1.43;100.00;96028.22;1034283;28;20072;-69
2022/11/30 00:29:48;;;;;;;73.85;27.33;;;;;;;1.42;100.00;96029.22;1029840;28;20018;-69
2022/11/30 00:30:19;;;;;;;69.72;25.67;;;;;;;1.40;100.00;96031.19;1030671;28;20033;-70
2022/11/30 00:30:59;;;;;;;65.43;24.25;;;;;;;1.42;100.00;96029.22;1030795;28;20481;-70
2022/11/30 00:31:29;;;;;;;72.05;24.70;;;;;;;1.42;100.00;96024.06;1035914;28;20029;-70
2022/11/30 00:32:00;;;;;;;75.55;25.40;;;;;;;1.44;100.00;96029.81;1034163;28;20355;-70
2022/11/30 00:32:30;;;;;;;71.55;24.67;;;;;;;1.37;100.00;96029.00;1029482;28;20113;-70
2022/11/30 00:33:01;;;;;;;76.45;27.48;;;;;;;1.39;100.00;96032.19;1026617;28;20611;-70
2022/11/30 00:33:32;;;;;;;74.97;25.60;;;;;;;1.38;100.00;96035.78;1032295;28;20051;-70
2022/11/30 00:34:02;;;;;;;70.35;26.90;;;;;;;1.37;100.00;96031.59;1030145;28;20038;-70
2022/11/30 00:34:33;;;;;;;76.40;26.92;;;;;;;1.35;100.00;96028.44;1026619;28;20321;-69
2022/11/30 00:35:03;;;;;;;72.68;25.45;;;;;;;1.37;100.00;96036.75;1030099;28;20026;-70
2022/11/30 00:35:34;;;;;;;76.03;27.45;;;;;;;1.25;100.00;96017.69;1026722;28;20050;-69
2022/11/30 00:36:06;;;;;;;79.35;27.52;;;;;;;1.40;100.00;96036.38;1026164;28;20023;-70
2022/11/30 00:36:38;;;;;;;77.00;27.15;;;;;;;1.38;100.00;96035.78;1030175;28;20022;-70
2022/11/30 00:37:08;;;;;;;87.10;27.27;;;;;;;1.43;100.00;96033.41;1034711;28;20272;-70
2022/11/30 00:37:38;;;;;;;85.47;28.63;;;;;;;1.43;100.00;96035.97;1034538;28;20273;-69
2022/11/30 00:38:09;;;;;;;81.40;27.10;;;;;;;1.41;100.00;96037.97;1038329;28;20076;-70
2022/11/30 00:38:39;;;;;;;72.95;26.38;;;;;;;1.45;100.00;96035.81;1038383;28;20022;-71
2022/11/30 00:39:10;;;;;;;90.18;27.90;;;;;;;1.47;100.00;96036.38;1034400;28;20443;-70
2022/11/30 00:39:40;;;;;;;81.38;28.05;;;;;;;1.49;100.00;96035.19;1038505;28;20022;-70
2022/11/30 00:40:11;;;;;;;76.18;27.35;;;;;;;1.43;100.00;96038.56;1038047;28;20018;-70
2022/11/30 00:40:42;;;;;;;76.22;26.42;;;;;;;1.41;100.00;96032.81;1034256;28;20030;-70
2022/11/30 00:41:12;;;;;;;75.45;27.10;;;;;;;1.47;100.00;96034.59;1029040;28;20034;-69
2022/11/30 00:41:43;;;;;;;71.65;26.50;;;;;;;1.48;100.00;96035.41;1030266;28;20085;-69
2022/11/30 00:42:13;;;;;;;82.60;28.20;;;;;;;1.34;100.00;96006.13;1033532;28;20492;-69
2022/11/30 00:42:44;;;;;;;84.90;30.23;;;;;;;1.54;100.00;96032.00;1034495;28;20030;-70
2022/11/30 00:43:14;;;;;;;73.88;26.85;;;;;;;1.54;100.00;96038.00;1034389;28;20446;-70
2022/11/30 00:43:45;;;;;;;79.60;28.42;;;;;;;1.46;100.00;96025.25;1034468;28;20041;-69
2022/11/30 00:44:15;;;;;;;80.45;28.13;;;;;;;1.56;100.00;96037.78;1030234;28;20520;-70
2022/11/30 00:44:46;;;;;;;78.75;28.42;;;;;;;1.52;100.00;96032.22;1030200;28;20040;-70
2022/11/30 00:45:16;;;;;;;92.43;30.83;;;;;;;1.62;100.00;96037.00;1030494;28;20454;-70
2022/11/30 00:45:46;;;;;;;81.45;28.05;;;;;;;1.63;100.00;96039.38;1030348;28;20134;-69
2022/11/30 00:46:17;;;;;;;80.68;29.15;;;;;;;1.62;100.00;96037.78;1030252;28;20496;-70
2022/11/30 00:46:48;;;;;;;80.97;27.38;;;;;;;1.65;100.00;96039.97;1034549;28;20034;-70
2022/11/30 00:47:18;;;;;;;84.30;29.42;;;;;;;1.67;100.00;96038.97;1034182;28;20062;-70
2022/11/30 00:47:49;;;;;;;83.28;29.15;;;;;;;1.65;100.00;96036.59;1030496;28;20081;-70
2022/11/30 00:48:19;;;;;;;86.28;28.88;;;;;;;1.68;100.00;96049.13;1030373;28;20044;-70
2022/11/30 00:48:50;;;;;;;78.57;26.90;;;;;;;1.65;100.00;96044.38;1034372;28;20096;-69
2022/11/30 00:49:20;;;;;;;79.13;27.15;;;;;;;1.68;100.00;96043.97;1039568;28;20038;-70
2022/11/30 00:49:51;;;;;;;80.15;27.58;;;;;;;1.65;100.00;96037.41;1030861;28;20041;-70
2022/11/30 00:50:21;;;;;;;93.30;28.88;;;;;;;1.65;100.00;96042.56;1027642;28;20031;-69
2022/11/30 00:50:52;;;;;;;84.28;29.70;;;;;;;1.64;100.00;96043.56;1035238;28;20057;-70
2022/11/30 00:51:22;;;;;;;86.45;31.92;;;;;;;1.65;100.00;96042.56;1027140;28;20026;-70
2022/11/30 00:51:53;;;;;;;83.18;30.83;;;;;;;1.61;100.00;96038.78;1026974;28;20034;-70
2022/11/30 00:52:23;;;;;;;74.07;29.27;;;;;;;1.62;100.00;96039.59;1023071;28;20514;-68
2022/11/30 00:52:54;;;;;;;84.55;31.30;;;;;;;1.65;100.00;96044.38;1026873;28;20057;-70
2022/11/30 00:53:24;;;;;;;83.55;28.73;;;;;;;1.62;100.00;96045.53;1027559;28;20073;-67
2022/11/30 00:53:55;;;;;;;82.78;27.67;;;;;;;1.57;100.00;96045.34;1035006;28;20041;-70
2022/11/30 00:54:25;;;;;;;69.13;26.85;;;;;;;1.56;100.00;96043.75;1026991;28;20650;-70
2022/11/30 00:54:59;;;;;;;83.93;28.73;;;;;;;1.57;100.00;96040.16;1027196;28;20027;-70
2022/11/30 00:55:31;;;;;;;75.93;27.17;;;;;;;1.56;100.00;96045.53;1026478;28;20054;-69
2022/11/30 00:56:02;;;;;;;74.78;26.92;;;;;;;1.54;100.00;96048.34;1028754;28;20913;-70
2022/11/30 00:56:35;;;;;;;74.72;27.80;;;;;;;1.55;100.00;96055.09;1033147;28;20698;-70
2022/11/30 00:57:05;;;;;;;75.40;27.48;;;;;;;1.56;100.00;96046.34;1038971;28;20272;-69
2022/11/30 00:57:35;;;;;;;70.70;27.00;;;;;;;1.58;100.00;96049.53;1035363;28;20165;-69
2022/11/30 00:58:06;;;;;;;81.35;26.67;;;;;;;1.48;100.00;96028.44;1027476;28;20035;-70
2022/11/30 00:58:36;;;;;;;84.93;28.17;;;;;;;1.57;100.00;96055.69;1027019;28;20038;-69
2022/11/30 00:59:07;;;;;;;76.25;26.75;;;;;;;1.61;100.00;96048.31;1025877;28;20031;-70
2022/11/30 00:59:37;;;;;;;71.80;27.65;;;;;;;1.59;100.00;96048.53;1031012;28;20034;-70
2022/11/30 01:00:08;;;;;;;68.03;26.30;;;;;;;1.61;100.00;96043.13;1039674;28;20834;-70
2022/11/30 01:00:38;;;;;;;72.25;26.58;;;;;;;1.62;100.00;96048.13;1041632;28;20442;-69
2022/11/30 01:01:09;;;;;;;77.20;28.35;;;;;;;1.64;100.00;96043.56;1034955;28;20029;-69
2022/11/30 01:01:39;;;;;;;75.10;28.63;;;;;;;1.62;100.00;96052.50;1027430;28;20035;-69
2022/11/30 01:02:10;;;;;;;79.80;25.52;;;;;;;1.63;100.00;96047.13;1031029;28;20069;-70
2022/11/30 01:02:40;;;;;;;62.85;25.67;;;;;;;1.61;100.00;96048.31;1030453;28;20121;-70
2022/11/30 01:03:11;;;;;;;84.15;27.77;;;;;;;1.61;100.00;96051.72;1035456;28;20558;-69
2022/11/30 01:03:41;;;;;;;75.65;27.35;;;;;;;1.54;100.00;96048.34;1034968;28;20144;-70
2022/11/30 01:04:12;;;;;;;67.90;25.55;;;;;;;1.57;100.00;96050.50;1033864;28;20223;-69
2022/11/30 01:04:42;;;;;;;71.43;26.38;;;;;;;1.52;100.00;96042.56;1030912;28;20057;-69
2022/11/30 01:05:13;;;;;;;70.43;26.60;;;;;;;1.56;100.00;96051.50;1030956;28;20404;-67
2022/11/30 01:05:43;;;;;;;76.18;27.15;;;;;;;1.56;100.00;96050.72;1036357;28;20021;-69
2022/11/30 01:06:14;;;;;;;81.55;27.50;;;;;;;1.58;100.00;96054.69;1039221;28;20057;-70
2022/11/30 01:06:44;;;;;;;78.18;28.30;;;;;;;1.60;100.00;96055.28;1039057;28;20033;-69
2022/11/30 01:07:15;;;;;;;78.50;28.45;;;;;;;1.61;100.00;96054.31;1035289;28;20556;-69
2022/11/30 01:07:45;;;;;;;81.38;27.65;;;;;;;1.62;100.00;96052.50;1034801;28;20476;-70
2022/11/30 01:08:16;;;;;;;75.53;27.38;;;;;;;1.60;100.00;96052.69;1035115;28;20193;-69
2022/11/30 01:08:46;;;;;;;70.45;26.33;;;;;;;1.56;100.00;96053.31;1031132;28;20084;-69
2022/11/30 01:09:17;;;;;;;77.40;28.05;;;;;;;1.55;100.00;96055.09;1034681;28;20038;-70
2022/11/30 01:09:47;;;;;;;77.47;28.70;;;;;;;1.52;100.00;96052.91;1035188;28;20579;-70
2022/11/30 01:10:18;;;;;;;67.75;26.52;;;;;;;1.52;100.00;96050.31;1026931;28;20034;-70
2022/11/30 01:10:52;;;;;;;70.45;29.20;;;;;;;1.51;100.00;96046.16;1022753;28;20087;-69
2022/11/30 01:11:27;;;;;;;70.57;26.25;;;;;;;1.47;100.00;96057.84;1027737;28;20069;-69
2022/11/30 01:11:57;;;;;;;68.10;26.88;;;;;;;1.49;100.00;96053.28;1029208;28;20601;-70
2022/11/30 01:12:27;;;;;;;66.60;25.45;;;;;;;1.50;100.00;96049.72;1031178;28;20309;-68
2022/11/30 01:12:58;;;;;;;71.38;28.75;;;;;;;1.53;100.00;96051.91;1035122;28;20034;-70
2022/11/30 01:13:28;;;;;;;69.82;27.65;;;;;;;1.54;100.00;96056.09;1035442;28;20395;-69
2022/11/30 01:13:59;;;;;;;77.20;27.65;;;;;;;1.56;100.00;96055.88;1035383;28;20029;-69
2022/11/30 01:14:29;;;;;;;82.05;29.25;;;;;;;1.59;100.00;96055.50;1034823;28;20025;-71
2022/11/30 01:15:00;;;;;;;86.15;30.80;;;;;;;1.59;100.00;96055.50;1035058;28;20033;-70
2022/11/30 01:15:30;;;;;;;86.95;28.85;;;;;;;1.60;100.00;96057.88;1031396;28;20785;-70
2022/11/30 01:16:06;;;;;;;82.50;29.38;;;;;;;1.60;100.00;96060.44;1028915;28;20400;-69
2022/11/30 01:16:37;;;;;;;64.95;25.75;;;;;;;1.56;100.00;96056.69;1027392;28;20420;-69
2022/11/30 01:17:10;;;;;;;65.45;25.58;;;;;;;1.49;100.00;96055.88;1026960;28;20289;-69
2022/11/30 01:17:40;;;;;;;69.18;25.08;;;;;;;1.47;100.00;96052.69;1028279;28;20649;-70
2022/11/30 01:18:11;;;;;;;65.20;26.17;;;;;;;1.47;100.00;96059.66;1029014;28;20030;-68
2022/11/30 01:18:42;;;;;;;74.63;26.05;;;;;;;1.41;100.00;96048.31;1031104;28;20837;-70
2022/11/30 01:19:12;;;;;;;67.65;25.73;;;;;;;1.45;100.00;96059.84;1031433;28;20018;-71
2022/11/30 01:19:43;;;;;;;69.57;25.67;;;;;;;1.42;100.00;96052.50;1035059;28;20021;-70
2022/11/30 01:20:13;;;;;;;69.65;27.13;;;;;;;1.48;100.00;96058.69;1035048;28;20045;-69
2022/11/30 01:20:44;;;;;;;70.70;28.52;;;;;;;1.47;100.00;96057.84;1039450;28;20024;-70
2022/11/30 01:21:16;;;;;;;68.40;26.77;;;;;;;1.49;100.00;96055.88;1036062;28;20068;-69
2022/11/30 01:21:47;;;;;;;70.13;27.02;;;;;;;1.52;100.00;96058.06;1031229;28;20603;-70
2022/11/30 01:22:17;;;;;;;79.13;29.02;;;;;;;1.52;100.00;96054.69;1030791;28;20269;-69
2022/11/30 01:22:48;;;;;;;65.35;27.15;;;;;;;1.47;100.00;96050.09;1032748;28;20033;-70
2022/11/30 01:23:18;;;;;;;70.53;25.88;;;;;;;1.52;100.00;96060.66;1030700;28;20507;-71
2022/11/30 01:23:49;;;;;;;69.18;26.33;;;;;;;1.48;100.00;96050.91;1030847;28;20026;-70
2022/11/30 01:24:19;;;;;;;75.10;28.70;;;;;;;1.53;100.00;96057.06;1026383;28;20019;-69
2022/11/30 01:24:50;;;;;;;74.97;28.17;;;;;;;1.58;100.00;96059.88;1031780;28;20022;-70
2022/11/30 01:25:20;;;;;;;73.35;27.88;;;;;;;1.56;100.00;96056.69;1026786;28;20567;-70
2022/11/30 01:25:54;;;;;;;74.53;27.95;;;;;;;1.62;100.00;96065.44;1026827;28;20137;-71
2022/11/30 01:26:24;;;;;;;86.80;28.17;;;;;;;1.60;100.00;96063.03;1027576;28;20507;-69
2022/11/30 01:26:55;;;;;;;73.43;27.63;;;;;;;1.55;100.00;96065.44;1031910;28;20264;-70
2022/11/30 01:27:25;;;;;;;73.57;27.98;;;;;;;1.60;100.00;96062.25;1040235;28;20018;-68
2022/11/30 01:27:56;;;;;;;82.22;28.27;;;;;;;1.61;100.00;96061.25;1041132;28;20075;-70
2022/11/30 01:28:26;;;;;;;78.07;26.98;;;;;;;1.59;100.00;96060.66;1039757;28;20689;-70
2022/11/30 01:28:56;;;;;;;71.35;25.52;;;;;;;1.59;100.00;96061.47;1039610;28;20021;-70
2022/11/30 01:29:27;;;;;;;71.40;27.20;;;;;;;1.55;100.00;96065.44;1039379;28;20075;-71
2022/11/30 01:29:57;;;;;;;66.30;26.42;;;;;;;1.58;100.00;96061.66;1039181;28;20040;-70
2022/11/30 01:30:28;;;;;;;66.75;26.88;;;;;;;1.56;100.00;96056.69;1039581;28;20022;-70
2022/11/30 01:31:09;;;;;;;70.03;27.35;;;;;;;1.58;100.00;96053.91;1031085;28;20030;-70
2022/11/30 01:31:39;;;;;;;;;;;;;;;1.62;100.00;96065.44;1031877;28;20719;-70
2022/11/30 01:32:09;;;;;;;65.53;24.85;;;;;;;1.61;100.00;96064.66;1031119;28;19914;-71
2022/11/30 01:32:40;;;;;;;77.72;27.40;;;;;;;1.59;100.00;96052.91;1029357;28;20283;-70
2022/11/30 01:33:10;;;;;;;78.00;27.85;;;;;;;1.61;100.00;96059.47;1036893;28;20073;-69
2022/11/30 01:33:41;;;;;;;70.75;27.20;;;;;;;1.61;100.00;96058.66;1039269;28;20021;-70
2022/11/30 01:34:12;;;;;;;67.88;26.58;;;;;;;1.64;100.00;96058.28;1031325;28;20030;-69
2022/11/30 01:34:42;;;;;;;78.32;27.40;;;;;;;1.67;100.00;96060.47;1035477;28;20670;-70
2022/11/30 01:35:13;;;;;;;76.70;27.98;;;;;;;1.69;100.00;96060.28;1030939;28;20035;-70
2022/11/30 01:35:44;;;;;;;72.93;27.10;;;;;;;1.71;100.00;96061.69;1031626;28;20520;-70
2022/11/30 01:36:16;;;;;;;69.50;27.80;;;;;;;1.58;100.00;96048.75;1031061;28;20513;-70
2022/11/30 01:36:47;;;;;;;74.15;26.67;;;;;;;1.65;100.00;96063.25;1024220;28;20043;-70
2022/11/30 01:37:18;;;;;;;69.28;25.33;;;;;;;1.67;100.00;96055.28;1031436;28;20253;-70
2022/11/30 01:37:48;;;;;;;72.53;27.45;;;;;;;1.63;100.00;96056.69;1023036;29;20275;-70
2022/11/30 01:38:19;;;;;;;69.82;28.08;;;;;;;1.64;100.00;96061.69;1023986;28;20797;-71
2022/11/30 01:38:51;;;;;;;69.15;26.40;;;;;;;1.58;100.00;96049.53;1034852;28;20038;-70
2022/11/30 01:39:21;;;;;;;68.55;25.00;;;;;;;1.60;100.00;96057.88;1032017;28;20073;-71
2022/11/30 01:39:52;;;;;;;62.22;25.00;;;;;;;1.59;100.00;96060.66;1035432;28;20264;-70
2022/11/30 01:40:22;;;;;;;69.88;25.80;;;;;;;1.61;100.00;96064.66;1032659;28;20024;-70
2022/11/30 01:40:53;;;;;;;65.90;26.35;;;;;;;1.59;100.00;96065.84;1027243;28;20027;-70
2022/11/30 01:41:28;;;;;;;65.55;25.25;;;;;;;1.58;100.00;96072.00;1035683;28;20064;-70
2022/11/30 01:41:59;;;;;;;61.72;25.05;;;;;;;1.58;100.00;96069.44;1036649;28;20030;-70
2022/11/30 01:42:29;;;;;;;66.68;25.83;;;;;;;1.60;100.00;96063.03;1039702;28;21144;-70
2022/11/30 01:42:59;;;;;;;63.72;26.60;;;;;;;1.60;100.00;96059.66;1043261;28;20112;-69
2022/11/30 01:43:43;;;;;;;65.57;25.42;;;;;;;1.65;100.00;96065.84;1039292;28;20538;-70
2022/11/30 01:44:13;;;;;;;69.00;25.70;;;;;;;1.61;100.00;96074.19;1039560;28;20542;-71
2022/11/30 01:44:54;;;;;;;65.35;26.33;;;;;;;1.57;100.00;96073.78;1039139;28;20264;-70
2022/11/30 01:45:24;;;;;;;;;;;;;;;1.59;100.00;96065.84;1037883;28;20040;-70
2022/11/30 01:45:54;;;;;;;67.63;25.00;;;;;;;1.55;100.00;96064.66;1036385;28;19989;-70
2022/11/30 01:46:35;;;;;;;66.20;24.98;;;;;;;1.55;100.00;96070.59;1035156;28;20600;-69
2022/11/30 01:47:11;;;;;;;70.88;25.83;;;;;;;1.63;100.00;96072.19;1032304;28;20027;-70
2022/11/30 01:48:02;;;;;;;71.53;26.15;;;;;;;1.63;100.00;96073.00;1037423;28;20261;-69
2022/11/30 01:48:32;;;;;;;;;;;;;;;1.60;100.00;96068.22;1044220;28;20295;-70
2022/11/30 01:49:08;;;;;;;65.97;25.98;;;;;;;1.56;100.00;96072.19;1043924;28;19911;-70
2022/11/30 01:49:44;;;;;;;63.75;24.35;;;;;;;1.57;100.00;96072.97;1043898;28;20144;-69
2022/11/30 01:50:27;;;;;;;63.65;25.63;;;;;;;1.49;100.00;96066.22;1039374;28;20259;-69
2022/11/30 01:50:57;;;;;;;61.64;25.16;;;;;;;1.50;100.00;96069.59;1039547;28;20253;-70
2022/11/30 01:51:32;;;;;;;69.72;25.25;;;;;;;1.48;100.00;96069.81;1039397;28;20021;-70
2022/11/30 01:52:12;;;;;;;72.18;27.27;;;;;;;1.47;100.00;96064.81;1036302;28;20018;-70
2022/11/30 01:52:45;;;;;;;62.65;25.65;;;;;;;1.51;100.00;96072.00;1031154;28;20268;-70
2022/11/30 01:53:15;;;;;;;63.05;26.00;;;;;;;1.48;100.00;96063.84;1023147;28;20130;-70
2022/11/30 01:53:46;;;;;;;64.43;25.67;;;;;;;1.50;100.00;96067.81;1023428;28;20255;-70
2022/11/30 01:54:20;;;;;;;67.25;26.17;;;;;;;1.52;100.00;96071.00;1023311;29;20023;-70
2022/11/30 01:54:55;;;;;;;63.50;25.82;;;;;;;1.56;100.00;96072.19;1023251;29;20055;-69
2022/11/30 01:55:35;;;;;;;65.57;25.58;;;;;;;1.49;100.00;96060.25;1021191;28;20111;-70
2022/11/30 01:56:06;;;;;;;;;;;;;;;1.56;100.00;96072.19;1027975;28;20632;-70
2022/11/30 01:56:37;;;;;;;;;;;;;;;1.57;100.00;96070.41;1031719;28;19911;-69
2022/11/30 01:57:14;;;;;;;66.60;25.30;;;;;;;1.59;100.00;96071.81;1032918;28;19912;-71
2022/11/30 01:57:48;;;;;;;68.38;26.20;;;;;;;1.61;100.00;96075.00;1031193;28;20290;-69
2022/11/30 01:58:25;;;;;;;73.03;26.48;;;;;;;1.64;100.00;96074.59;1027135;28;20266;-69
2022/11/30 01:58:56;;;;;;;67.85;27.25;;;;;;;1.64;100.00;96079.78;1031086;28;20266;-70
2022/11/30 01:59:26;;;;;;;73.20;25.67;;;;;;;1.68;100.00;96069.00;1028560;28;20385;-70
2022/11/30 01:59:58;;;;;;;75.53;27.45;;;;;;;1.64;100.00;96068.63;1030806;28;20030;-70
2022/11/30 02:00:28;;;;;;;66.38;26.23;;;;;;;1.73;100.00;96079.56;1023680;28;20083;-70
2022/11/30 02:00:59;;;;;;;65.70;26.08;;;;;;;1.65;100.00;96072.81;1023262;28;20309;-70
2022/11/30 02:01:29;;;;;;;65.57;25.52;;;;;;;1.57;100.00;96067.81;1023524;28;20027;-69
2022/11/30 02:02:00;;;;;;;70.60;27.25;;;;;;;1.61;100.00;96080.16;1023380;28;20829;-71
2022/11/30 02:03:04;;;;;;;68.15;27.65;;;;;;;1.65;100.00;96077.97;1022492;28;20023;-70
2022/11/30 02:03:47;;;;;;;66.30;25.80;;;;;;;1.59;100.00;96078.78;1022076;28;20031;-69
2022/11/30 02:04:23;;;;;;;64.32;24.38;;;;;;;1.56;100.00;96079.16;1026889;28;20274;-68
2022/11/30 02:04:54;;;;;;;65.25;26.27;;;;;;;1.49;100.00;96076.56;1026935;28;20242;-70
2022/11/30 02:05:25;;;;;;;59.60;25.15;;;;;;;1.43;100.00;96067.00;1027053;28;20266;-70
2022/11/30 02:05:55;;;;;;;65.80;26.17;;;;;;;1.49;100.00;96066.22;1035050;28;20029;-70
2022/11/30 02:06:25;;;;;;;69.03;26.08;;;;;;;1.49;100.00;96073.97;1031222;28;20133;-70
2022/11/30 02:06:56;;;;;;;71.57;26.77;;;;;;;1.46;100.00;96071.78;1027020;28;20033;-70
2022/11/30 02:07:27;;;;;;;65.25;26.25;;;;;;;1.47;100.00;96070.78;1025267;28;20489;-70
2022/11/30 02:07:57;;;;;;;66.93;27.50;;;;;;;1.49;100.00;96073.97;1031068;28;20030;-70
2022/11/30 02:08:28;;;;;;;72.60;26.58;;;;;;;1.49;100.00;96076.56;1031573;28;20019;-69
2022/11/30 02:08:58;;;;;;;63.22;25.10;;;;;;;1.51;100.00;96074.59;1027142;28;20019;-70
2022/11/30 02:09:29;;;;;;;69.43;28.35;;;;;;;1.51;100.00;96073.78;1023247;28;20477;-70
2022/11/30 02:10:00;;;;;;;66.28;26.42;;;;;;;1.49;100.00;96076.56;1019461;29;20043;-70
2022/11/30 02:10:31;;;;;;;67.10;26.45;;;;;;;1.46;100.00;96069.19;1019434;29;20766;-69
2022/11/30 02:11:03;;;;;;;66.85;26.85;;;;;;;1.52;100.00;96078.75;1028587;28;20018;-70
2022/11/30 02:11:34;;;;;;;60.42;26.92;;;;;;;1.54;100.00;96078.53;1027085;28;20891;-70
2022/11/30 02:12:05;;;;;;;66.93;25.90;;;;;;;1.54;100.00;96076.78;1022783;29;20358;-71
2022/11/30 02:12:52;;;;;;;61.63;24.85;;;;;;;1.62;100.00;96080.97;1026549;28;20863;-70
2022/11/30 02:13:43;;;;;;;70.63;26.45;;;;;;;1.58;100.00;96077.97;1033442;28;20030;-70
2022/11/30 02:14:32;;;;;;;65.97;25.80;;;;;;;1.53;100.00;96082.94;1032500;28;20271;-70
2022/11/30 02:15:07;;;;;;;68.05;26.70;;;;;;;1.56;100.00;96072.19;1033978;28;20265;-70
2022/11/30 02:15:59;;;;;;;66.63;24.58;;;;;;;1.57;100.00;96073.78;1035481;28;20273;-70
2022/11/30 02:17:07;;;;;;;66.75;24.80;;;;;;;1.56;100.00;96077.38;1027121;28;21155;-70
2022/11/30 02:17:49;;;;;;;65.47;24.58;;;;;;;1.55;100.00;96072.41;1031683;28;20246;-70
2022/11/30 02:18:28;;;;;;;67.45;25.90;;;;;;;1.54;100.00;96079.38;1028194;28;21014;-69
2022/11/30 02:19:17;;;;;;;66.30;26.48;;;;;;;1.57;100.00;96081.53;1026923;28;20255;-70
2022/11/30 02:19:58;;;;;;;61.55;25.08;;;;;;;1.49;100.00;96063.63;1026925;28;20313;-70
2022/11/30 02:20:33;;;;;;;63.15;24.27;;;;;;;1.62;100.00;96076.59;1037483;28;20260;-70
2022/11/30 02:21:23;;;;;;;69.22;26.20;;;;;;;1.65;100.00;96081.38;1037843;28;20033;-70
2022/11/30 02:22:09;;;;;;;70.88;26.77;;;;;;;1.67;100.00;96077.78;1030938;28;20261;-70
2022/11/30 02:23:01;;;;;;;68.28;25.35;;;;;;;1.60;100.00;96075.97;1037752;28;20022;-70
2022/11/30 02:23:38;;;;;;;67.10;25.90;;;;;;;1.59;100.00;96076.97;1028129;28;20273;-70
2022/11/30 02:24:26;;;;;;;70.90;25.70;;;;;;;1.57;100.00;96078.16;1027227;28;20272;-70
2022/11/30 02:25:23;;;;;;;71.68;25.00;;;;;;;1.58;100.00;96074.59;1027867;28;20819;-70
2022/11/30 02:26:04;;;;;;;71.18;25.52;;;;;;;1.60;100.00;96075.97;1032976;28;20270;-70
2022/11/30 02:26:59;;;;;;;71.13;27.00;;;;;;;1.65;100.00;96086.53;1027081;28;20266;-69
2022/11/30 02:27:48;;;;;;;68.60;26.75;;;;;;;1.60;100.00;96081.16;1031097;28;20712;-69
2022/11/30 02:28:41;;;;;;;65.82;26.08;;;;;;;1.57;100.00;96078.94;1037375;28;20260;-69
2022/11/30 02:29:24;;;;;;;70.35;26.42;;;;;;;1.56;100.00;96079.94;1030701;28;20277;-69
2022/11/30 02:29:57;;;;;;;67.63;25.25;;;;;;;1.58;100.00;96077.97;1030379;28;20580;-70
2022/11/30 02:30:27;;;;;;;68.85;26.33;;;;;;;1.54;100.00;96074.19;1030789;28;20257;-69
2022/11/30 02:30:58;;;;;;;64.30;26.05;;;;;;;1.53;100.00;96082.94;1033400;28;20376;-70
2022/11/30 02:31:58;;;;;;;66.45;26.90;;;;;;;1.55;100.00;96080.16;1026517;28;20018;-70